Terminal Aerodrome Forecast
Issued by NWS

Home | Current Version | Previous Version | Graphics & Text | Print | Product List | Glossary On
Versions: 1 2 3 4 5 6 7 8 9 10 11 12 13 14 15 16 17 18
000
FTUS43 KGRB 241900 AAA
TAFCWA
TAF AMD
KCWA 241956Z 2420/2518 34008KT P6SM BKN010 OVC015
     FM250200 31006KT P6SM BKN015 OVC025
     FM250600 27008KT P6SM OVC015
     FM251400 23007KT P6SM OVC022=

USA.gov is the U.S. government's official web portal to all federal, state and local government web resources and services.